Island of Crete, Greece
Current Conditions -  °F | °C
As of 1:20 PM on Saturday 25 Oct 2014 (Local Time) from LGIR Reporting Station
Few Clouds Few Clouds  
Wind Chill: 73°   Ceiling: Unl
Heat Index: 73°   Visibility: 6mi
Dew Point: 57°   Wind: 9mph
Humidity: 57%   Direction: 20°NNE
Pressure: 29.85"   Gusts: NA
Location:  35.33°N, 25.18°E
Report Text: LGIR 251020Z 02008KT 9999 FEW025 23/14 Q1011 NOSIG
Loading
Personal Weather Stations






























Interactive Weather Map
Tropical Storm Tracking
New forecast layout! Learn more

10-Day Weather Forecast

Advertisements
Track Severe Weather on mobile